sensor_id;sensor_type;location;lat;lon;timestamp;pressure;altitude;pressure_sealevel;temperature;humidity
5062;BME280;2351;50.812;12.872;2022-12-18T00:02:11;99322.69;;;-12.37;92.76
5062;BME280;2351;50.812;12.872;2022-12-18T00:04:43;99320.09;;;-12.39;92.79
5062;BME280;2351;50.812;12.872;2022-12-18T00:07:16;99314.94;;;-12.41;93.00
5062;BME280;2351;50.812;12.872;2022-12-18T00:09:47;99324.22;;;-12.43;92.71
5062;BME280;2351;50.812;12.872;2022-12-18T00:12:19;99321.59;;;-12.46;92.87
5062;BME280;2351;50.812;12.872;2022-12-18T00:14:51;99310.50;;;-12.48;92.65
5062;BME280;2351;50.812;12.872;2022-12-18T00:17:22;99308.69;;;-12.52;92.79
5062;BME280;2351;50.812;12.872;2022-12-18T00:19:54;99322.25;;;-12.53;92.93
5062;BME280;2351;50.812;12.872;2022-12-18T00:22:27;99329.78;;;-12.58;92.44
5062;BME280;2351;50.812;12.872;2022-12-18T00:24:59;99332.19;;;-12.62;92.34
5062;BME280;2351;50.812;12.872;2022-12-18T00:27:31;99322.78;;;-12.63;92.47
5062;BME280;2351;50.812;12.872;2022-12-18T00:30:03;99332.09;;;-12.65;92.62
5062;BME280;2351;50.812;12.872;2022-12-18T00:32:35;99325.25;;;-12.66;92.77
5062;BME280;2351;50.812;12.872;2022-12-18T00:35:07;99324.34;;;-12.68;92.67
5062;BME280;2351;50.812;12.872;2022-12-18T00:37:41;99330.28;;;-12.69;92.71
5062;BME280;2351;50.812;12.872;2022-12-18T00:40:12;99330.13;;;-12.74;92.69
5062;BME280;2351;50.812;12.872;2022-12-18T00:42:44;99333.47;;;-12.77;92.41
5062;BME280;2351;50.812;12.872;2022-12-18T00:45:28;99335.09;;;-12.79;92.55
5062;BME280;2351;50.812;12.872;2022-12-18T00:48:00;99341.84;;;-12.81;92.75
5062;BME280;2351;50.812;12.872;2022-12-18T00:50:32;99346.09;;;-12.81;92.66
5062;BME280;2351;50.812;12.872;2022-12-18T00:53:05;99338.28;;;-12.86;92.77
5062;BME280;2351;50.812;12.872;2022-12-18T00:55:37;99338.25;;;-12.88;92.52
5062;BME280;2351;50.812;12.872;2022-12-18T00:58:11;99340.72;;;-12.91;92.35
5062;BME280;2351;50.812;12.872;2022-12-18T01:00:43;99341.38;;;-12.96;92.40
5062;BME280;2351;50.812;12.872;2022-12-18T01:03:15;99342.97;;;-13.00;92.70
5062;BME280;2351;50.812;12.872;2022-12-18T01:05:46;99337.78;;;-13.03;92.61
5062;BME280;2351;50.812;12.872;2022-12-18T01:08:19;99343.72;;;-13.04;92.26
5062;BME280;2351;50.812;12.872;2022-12-18T01:10:51;99339.38;;;-13.07;92.48
5062;BME280;2351;50.812;12.872;2022-12-18T01:13:23;99335.91;;;-13.09;92.42
5062;BME280;2351;50.812;12.872;2022-12-18T01:15:54;99340.09;;;-13.11;92.39
5062;BME280;2351;50.812;12.872;2022-12-18T01:18:26;99340.72;;;-13.18;92.23
5062;BME280;2351;50.812;12.872;2022-12-18T01:20:58;99345.72;;;-13.21;92.39
5062;BME280;2351;50.812;12.872;2022-12-18T01:23:31;99349.22;;;-13.18;92.33
5062;BME280;2351;50.812;12.872;2022-12-18T01:26:06;99351.84;;;-13.16;92.46
5062;BME280;2351;50.812;12.872;2022-12-18T01:28:39;99355.13;;;-13.19;92.30
5062;BME280;2351;50.812;12.872;2022-12-18T01:31:16;99355.09;;;-13.20;92.47
5062;BME280;2351;50.812;12.872;2022-12-18T01:33:50;99359.28;;;-13.22;92.32
5062;BME280;2351;50.812;12.872;2022-12-18T01:36:23;99360.06;;;-13.25;92.49
5062;BME280;2351;50.812;12.872;2022-12-18T01:38:58;99353.97;;;-13.28;92.26
5062;BME280;2351;50.812;12.872;2022-12-18T01:41:32;99364.25;;;-13.27;92.18
5062;BME280;2351;50.812;12.872;2022-12-18T01:44:53;99361.59;;;-13.30;92.32
5062;BME280;2351;50.812;12.872;2022-12-18T01:47:29;99368.34;;;-13.30;92.71
5062;BME280;2351;50.812;12.872;2022-12-18T01:50:05;99370.88;;;-13.32;92.35
5062;BME280;2351;50.812;12.872;2022-12-18T01:52:38;99369.97;;;-13.33;92.35
5062;BME280;2351;50.812;12.872;2022-12-18T01:55:15;99374.16;;;-13.35;92.35
5062;BME280;2351;50.812;12.872;2022-12-18T01:57:49;99374.94;;;-13.37;92.34
5062;BME280;2351;50.812;12.872;2022-12-18T02:00:22;99375.69;;;-13.41;92.16
5062;BME280;2351;50.812;12.872;2022-12-18T02:02:55;99379.84;;;-13.43;92.29
5062;BME280;2351;50.812;12.872;2022-12-18T02:05:36;99381.47;;;-13.45;92.51
5062;BME280;2351;50.812;12.872;2022-12-18T02:08:16;99377.28;;;-13.45;92.32
5062;BME280;2351;50.812;12.872;2022-12-18T02:10:58;99378.06;;;-13.48;92.34
5062;BME280;2351;50.812;12.872;2022-12-18T02:13:37;99384.66;;;-13.53;92.14
5062;BME280;2351;50.812;12.872;2022-12-18T02:16:17;99394.91;;;-13.51;92.62
5062;BME280;2351;50.812;12.872;2022-12-18T02:18:54;99397.25;;;-13.57;92.44
5062;BME280;2351;50.812;12.872;2022-12-18T02:21:34;99401.31;;;-13.63;92.14
5062;BME280;2351;50.812;12.872;2022-12-18T02:24:18;99400.44;;;-13.63;92.25
5062;BME280;2351;50.812;12.872;2022-12-18T02:26:58;99388.47;;;-13.66;92.20
5062;BME280;2351;50.812;12.872;2022-12-18T02:29:34;99383.28;;;-13.69;92.14
5062;BME280;2351;50.812;12.872;2022-12-18T02:32:11;99388.38;;;-13.69;92.14
5062;BME280;2351;50.812;12.872;2022-12-18T02:34:46;99382.47;;;-13.68;92.47
5062;BME280;2351;50.812;12.872;2022-12-18T02:37:19;99384.91;;;-13.71;92.42
5062;BME280;2351;50.812;12.872;2022-12-18T02:39:53;99384.06;;;-13.71;92.47
5062;BME280;2351;50.812;12.872;2022-12-18T02:42:28;99380.63;;;-13.72;92.40
5062;BME280;2351;50.812;12.872;2022-12-18T02:45:00;99380.69;;;-13.70;92.45
5062;BME280;2351;50.812;12.872;2022-12-18T02:47:34;99371.25;;;-13.73;91.91
5062;BME280;2351;50.812;12.872;2022-12-18T02:50:13;99380.59;;;-13.73;92.25
5062;BME280;2351;50.812;12.872;2022-12-18T02:52:55;99370.28;;;-13.76;92.50
5062;BME280;2351;50.812;12.872;2022-12-18T02:55:42;99371.91;;;-13.79;92.20
5062;BME280;2351;50.812;12.872;2022-12-18T02:58:26;99373.53;;;-13.81;92.38
5062;BME280;2351;50.812;12.872;2022-12-18T03:01:02;99388.81;;;-13.81;92.29
5062;BME280;2351;50.812;12.872;2022-12-18T03:03:40;99383.59;;;-13.84;92.21
5062;BME280;2351;50.812;12.872;2022-12-18T03:06:18;99378.41;;;-13.87;92.17
5062;BME280;2351;50.812;12.872;2022-12-18T03:08:57;99382.66;;;-13.87;92.19
5062;BME280;2351;50.812;12.872;2022-12-18T03:11:31;99374.09;;;-13.89;92.12
5062;BME280;2351;50.812;12.872;2022-12-18T03:14:24;99379.19;;;-13.89;92.22
5062;BME280;2351;50.812;12.872;2022-12-18T03:16:59;99381.63;;;-13.93;92.29
5062;BME280;2351;50.812;12.872;2022-12-18T03:19:33;99385.78;;;-13.95;92.22
5062;BME280;2351;50.812;12.872;2022-12-18T03:22:06;99376.38;;;-13.97;92.31
5062;BME280;2351;50.812;12.872;2022-12-18T03:24:38;99385.66;;;-13.98;92.14
5062;BME280;2351;50.812;12.872;2022-12-18T03:27:12;99383.09;;;-13.99;92.20
5062;BME280;2351;50.812;12.872;2022-12-18T03:29:49;99382.19;;;-14.00;92.21
5062;BME280;2351;50.812;12.872;2022-12-18T03:32:26;99386.41;;;-14.02;92.04
5062;BME280;2351;50.812;12.872;2022-12-18T03:35:03;99387.94;;;-14.05;92.21
5062;BME280;2351;50.812;12.872;2022-12-18T03:37:36;99389.53;;;-14.09;92.03
5062;BME280;2351;50.812;12.872;2022-12-18T03:40:08;99390.34;;;-14.10;92.14
5062;BME280;2351;50.812;12.872;2022-12-18T03:42:46;99395.31;;;-14.13;92.17
5062;BME280;2351;50.812;12.872;2022-12-18T03:45:34;99393.59;;;-14.14;92.11
5062;BME280;2351;50.812;12.872;2022-12-18T03:48:11;99385.09;;;-14.15;92.23
5062;BME280;2351;50.812;12.872;2022-12-18T03:50:51;99388.50;;;-14.14;92.20
5062;BME280;2351;50.812;12.872;2022-12-18T03:53:31;99385.13;;;-14.13;92.39
5062;BME280;2351;50.812;12.872;2022-12-18T03:56:07;99396.13;;;-14.14;92.21
5062;BME280;2351;50.812;12.872;2022-12-18T03:58:41;99390.91;;;-14.17;92.13
5062;BME280;2351;50.812;12.872;2022-12-18T04:01:16;99389.19;;;-14.18;92.14
5062;BME280;2351;50.812;12.872;2022-12-18T04:03:50;99395.97;;;-14.19;92.14
5062;BME280;2351;50.812;12.872;2022-12-18T04:06:23;99396.78;;;-14.20;92.26
5062;BME280;2351;50.812;12.872;2022-12-18T04:08:55;99411.25;;;-14.19;92.14
5062;BME280;2351;50.812;12.872;2022-12-18T04:11:27;99406.88;;;-14.21;92.01
5062;BME280;2351;50.812;12.872;2022-12-18T04:13:59;99395.81;;;-14.24;92.21
5062;BME280;2351;50.812;12.872;2022-12-18T04:16:32;99403.44;;;-14.24;92.19
5062;BME280;2351;50.812;12.872;2022-12-18T04:19:04;99399.97;;;-14.26;92.27
5062;BME280;2351;50.812;12.872;2022-12-18T04:21:36;99399.09;;;-14.26;92.26
5062;BME280;2351;50.812;12.872;2022-12-18T04:24:08;99403.34;;;-14.27;92.05
5062;BME280;2351;50.812;12.872;2022-12-18T04:26:39;99411.69;;;-14.29;92.06
5062;BME280;2351;50.812;12.872;2022-12-18T04:29:11;99413.38;;;-14.30;92.08
5062;BME280;2351;50.812;12.872;2022-12-18T04:31:44;99405.69;;;-14.31;92.31
5062;BME280;2351;50.812;12.872;2022-12-18T04:34:16;99413.31;;;-14.31;92.18
5062;BME280;2351;50.812;12.872;2022-12-18T04:36:48;99409.03;;;-14.32;92.16
5062;BME280;2351;50.812;12.872;2022-12-18T04:39:19;99413.16;;;-14.36;91.90
5062;BME280;2351;50.812;12.872;2022-12-18T04:41:51;99417.19;;;-14.41;91.97
5062;BME280;2351;50.812;12.872;2022-12-18T04:44:23;99410.34;;;-14.44;91.95
5062;BME280;2351;50.812;12.872;2022-12-18T04:46:56;99414.53;;;-14.44;91.99
5062;BME280;2351;50.812;12.872;2022-12-18T04:49:27;99413.69;;;-14.45;92.12
5062;BME280;2351;50.812;12.872;2022-12-18T04:51:59;99406.84;;;-14.46;92.30
5062;BME280;2351;50.812;12.872;2022-12-18T04:54:31;99398.31;;;-14.48;92.09
5062;BME280;2351;50.812;12.872;2022-12-18T04:57:03;99405.88;;;-14.49;92.08
5062;BME280;2351;50.812;12.872;2022-12-18T04:59:34;99399.88;;;-14.51;91.98
5062;BME280;2351;50.812;12.872;2022-12-18T05:02:07;99409.97;;;-14.53;92.04
5062;BME280;2351;50.812;12.872;2022-12-18T05:04:39;99406.56;;;-14.54;92.03
5062;BME280;2351;50.812;12.872;2022-12-18T05:07:11;99408.19;;;-14.56;91.97
5062;BME280;2351;50.812;12.872;2022-12-18T05:09:42;99405.66;;;-14.56;91.96
5062;BME280;2351;50.812;12.872;2022-12-18T05:12:14;99404.78;;;-14.56;92.16
5062;BME280;2351;50.812;12.872;2022-12-18T05:14:46;99419.13;;;-14.58;91.99
5062;BME280;2351;50.812;12.872;2022-12-18T05:17:19;99418.25;;;-14.59;91.93
5062;BME280;2351;50.812;12.872;2022-12-18T05:19:50;99421.59;;;-14.60;91.99
5062;BME280;2351;50.812;12.872;2022-12-18T05:22:22;99418.13;;;-14.62;92.08
5062;BME280;2351;50.812;12.872;2022-12-18T05:24:55;99425.72;;;-14.63;91.99
5062;BME280;2351;50.812;12.872;2022-12-18T05:27:26;99425.63;;;-14.65;91.94
5062;BME280;2351;50.812;12.872;2022-12-18T05:29:58;99421.31;;;-14.68;91.77
5062;BME280;2351;50.812;12.872;2022-12-18T05:32:31;99432.28;;;-14.70;92.11
5062;BME280;2351;50.812;12.872;2022-12-18T05:35:04;99436.47;;;-14.71;91.90
5062;BME280;2351;50.812;12.872;2022-12-18T05:37:36;99423.59;;;-14.75;91.83
5062;BME280;2351;50.812;12.872;2022-12-18T05:40:09;99416.66;;;-14.79;91.73
5062;BME280;2351;50.812;12.872;2022-12-18T05:42:41;99411.56;;;-14.79;92.41
5062;BME280;2351;50.812;12.872;2022-12-18T05:45:12;99413.28;;;-14.78;91.96
5062;BME280;2351;50.812;12.872;2022-12-18T05:47:45;99420.00;;;-14.80;91.90
5062;BME280;2351;50.812;12.872;2022-12-18T05:50:17;99414.91;;;-14.80;91.97
5062;BME280;2351;50.812;12.872;2022-12-18T05:52:49;99420.00;;;-14.80;91.93
5062;BME280;2351;50.812;12.872;2022-12-18T05:55:20;99425.03;;;-14.82;91.77
5062;BME280;2351;50.812;12.872;2022-12-18T05:57:52;99430.84;;;-14.85;91.95
5062;BME280;2351;50.812;12.872;2022-12-18T06:00:24;99434.16;;;-14.87;91.78
5062;BME280;2351;50.812;12.872;2022-12-18T06:02:57;99440.03;;;-14.88;91.88
5062;BME280;2351;50.812;12.872;2022-12-18T06:05:29;99444.22;;;-14.89;92.00
5062;BME280;2351;50.812;12.872;2022-12-18T06:08:05;99449.28;;;-14.90;91.88
5062;BME280;2351;50.812;12.872;2022-12-18T06:10:37;99451.81;;;-14.90;91.92
5062;BME280;2351;50.812;12.872;2022-12-18T06:13:10;99459.44;;;-14.90;91.73
5062;BME280;2351;50.812;12.872;2022-12-18T06:15:41;99465.31;;;-14.91;91.81
5062;BME280;2351;50.812;12.872;2022-12-18T06:18:15;99464.41;;;-14.93;91.90
5062;BME280;2351;50.812;12.872;2022-12-18T06:20:54;99462.75;;;-14.93;91.94
5062;BME280;2351;50.812;12.872;2022-12-18T06:23:26;99465.19;;;-14.94;91.83
5062;BME280;2351;50.812;12.872;2022-12-18T06:25:58;99470.22;;;-14.96;92.00
5062;BME280;2351;50.812;12.872;2022-12-18T06:28:30;99468.53;;;-14.95;91.95
5062;BME280;2351;50.812;12.872;2022-12-18T06:31:02;99468.41;;;-14.99;91.84
5062;BME280;2351;50.812;12.872;2022-12-18T06:33:36;99460.78;;;-14.99;91.92
5062;BME280;2351;50.812;12.872;2022-12-18T06:36:10;99463.28;;;-15.00;91.84
5062;BME280;2351;50.812;12.872;2022-12-18T06:38:43;99464.03;;;-15.03;91.91
5062;BME280;2351;50.812;12.872;2022-12-18T06:41:16;99462.31;;;-15.04;91.70
5062;BME280;2351;50.812;12.872;2022-12-18T06:43:49;99467.38;;;-15.04;91.74
5062;BME280;2351;50.812;12.872;2022-12-18T06:46:21;99466.44;;;-15.06;91.92
5062;BME280;2351;50.812;12.872;2022-12-18T06:48:54;99470.66;;;-15.06;91.68
5062;BME280;2351;50.812;12.872;2022-12-18T06:51:26;99478.16;;;-15.09;91.77
5062;BME280;2351;50.812;12.872;2022-12-18T06:53:58;99481.50;;;-15.10;91.80
5062;BME280;2351;50.812;12.872;2022-12-18T06:56:30;99479.78;;;-15.11;91.80
5062;BME280;2351;50.812;12.872;2022-12-18T06:59:02;99470.44;;;-15.12;91.97
5062;BME280;2351;50.812;12.872;2022-12-18T07:01:33;99477.25;;;-15.11;91.75
5062;BME280;2351;50.812;12.872;2022-12-18T07:04:06;99470.44;;;-15.12;92.03
5062;BME280;2351;50.812;12.872;2022-12-18T07:06:38;99474.69;;;-15.11;91.94
5062;BME280;2351;50.812;12.872;2022-12-18T07:09:10;99470.44;;;-15.12;91.79
5062;BME280;2351;50.812;12.872;2022-12-18T07:11:42;99451.84;;;-15.11;91.72
5062;BME280;2351;50.812;12.872;2022-12-18T07:14:13;99449.28;;;-15.11;91.77
5062;BME280;2351;50.812;12.872;2022-12-18T07:16:45;99456.03;;;-15.12;91.90
5062;BME280;2351;50.812;12.872;2022-12-18T07:19:18;99460.44;;;-15.08;92.06
5062;BME280;2351;50.812;12.872;2022-12-18T07:21:50;99463.09;;;-15.05;91.99
5062;BME280;2351;50.812;12.872;2022-12-18T07:24:21;99465.66;;;-15.05;92.01
5062;BME280;2351;50.812;12.872;2022-12-18T07:26:53;99472.38;;;-15.05;91.79
5062;BME280;2351;50.812;12.872;2022-12-18T07:29:25;99465.53;;;-15.08;91.96
5062;BME280;2351;50.812;12.872;2022-12-18T07:31:57;99473.19;;;-15.06;91.92
5062;BME280;2351;50.812;12.872;2022-12-18T07:34:30;99469.19;;;-15.01;92.24
5062;BME280;2351;50.812;12.872;2022-12-18T07:37:01;99476.94;;;-14.98;92.29
5062;BME280;2351;50.812;12.872;2022-12-18T07:39:33;99483.00;;;-14.94;92.29
5062;BME280;2351;50.812;12.872;2022-12-18T07:42:07;99487.34;;;-14.92;92.28
5062;BME280;2351;50.812;12.872;2022-12-18T07:44:53;99489.19;;;-14.88;92.42
5062;BME280;2351;50.812;12.872;2022-12-18T07:47:25;99494.53;;;-14.81;92.50
5062;BME280;2351;50.812;12.872;2022-12-18T07:49:58;99491.88;;;-14.62;93.18
5062;BME280;2351;50.812;12.872;2022-12-18T07:52:30;99483.19;;;-13.76;95.96
5062;BME280;2351;50.812;12.872;2022-12-18T07:55:01;99465.75;;;-12.33;97.29
5062;BME280;2351;50.812;12.872;2022-12-18T07:57:33;99478.47;;;-11.09;96.63
5062;BME280;2351;50.812;12.872;2022-12-18T08:00:06;99468.88;;;-10.48;94.18
5062;BME280;2351;50.812;12.872;2022-12-18T08:02:38;99476.03;;;-10.71;91.67
5062;BME280;2351;50.812;12.872;2022-12-18T08:05:11;99470.59;;;-11.18;91.81
5062;BME280;2351;50.812;12.872;2022-12-18T08:07:43;99465.28;;;-11.58;92.23
5062;BME280;2351;50.812;12.872;2022-12-18T08:10:15;99458.63;;;-11.84;92.69
5062;BME280;2351;50.812;12.872;2022-12-18T08:12:49;99470.97;;;-11.99;93.28
5062;BME280;2351;50.812;12.872;2022-12-18T08:15:21;99473.31;;;-12.07;93.72
5062;BME280;2351;50.812;12.872;2022-12-18T08:17:56;99475.72;;;-12.12;93.21
5062;BME280;2351;50.812;12.872;2022-12-18T08:20:29;99480.78;;;-12.13;93.97
5062;BME280;2351;50.812;12.872;2022-12-18T08:23:00;99476.56;;;-12.13;93.30
5062;BME280;2351;50.812;12.872;2022-12-18T08:25:33;99486.03;;;-12.08;93.97
5062;BME280;2351;50.812;12.872;2022-12-18T08:28:05;99489.72;;;-11.99;94.14
5062;BME280;2351;50.812;12.872;2022-12-18T08:30:37;99490.13;;;-11.83;94.98
5062;BME280;2351;50.812;12.872;2022-12-18T08:33:08;99495.00;;;-11.62;95.89
5062;BME280;2351;50.812;12.872;2022-12-18T08:35:42;99493.97;;;-11.03;97.60
5062;BME280;2351;50.812;12.872;2022-12-18T08:38:13;99496.75;;;-10.20;97.53
5062;BME280;2351;50.812;12.872;2022-12-18T08:40:45;99493.88;;;-9.53;97.80
5062;BME280;2351;50.812;12.872;2022-12-18T08:43:17;99485.44;;;-9.01;98.38
5062;BME280;2351;50.812;12.872;2022-12-18T08:46:06;99477.91;;;-8.35;99.83
5062;BME280;2351;50.812;12.872;2022-12-18T08:48:38;99475.28;;;-7.75;99.64
5062;BME280;2351;50.812;12.872;2022-12-18T08:51:11;99474.22;;;-7.17;99.69
5062;BME280;2351;50.812;12.872;2022-12-18T08:53:43;99482.38;;;-6.68;99.38
5062;BME280;2351;50.812;12.872;2022-12-18T08:56:15;99480.09;;;-6.27;99.14
5062;BME280;2351;50.812;12.872;2022-12-18T08:58:51;99483.69;;;-5.97;99.87
5062;BME280;2351;50.812;12.872;2022-12-18T09:01:23;99476.09;;;-5.68;100.00
5062;BME280;2351;50.812;12.872;2022-12-18T09:03:55;99471.97;;;-4.97;100.00
5062;BME280;2351;50.812;12.872;2022-12-18T09:06:28;99471.09;;;-4.17;100.00
5062;BME280;2351;50.812;12.872;2022-12-18T09:09:00;99467.53;;;-3.76;99.66
5062;BME280;2351;50.812;12.872;2022-12-18T09:11:32;99471.75;;;-3.44;100.00
5062;BME280;2351;50.812;12.872;2022-12-18T09:14:04;99475.03;;;-3.17;99.80
5062;BME280;2351;50.812;12.872;2022-12-18T09:16:36;99477.63;;;-3.12;99.40
5062;BME280;2351;50.812;12.872;2022-12-18T09:19:09;99478.59;;;-3.40;98.04
5062;BME280;2351;50.812;12.872;2022-12-18T09:21:42;99482.22;;;-3.81;98.03
5062;BME280;2351;50.812;12.872;2022-12-18T09:24:14;99484.78;;;-3.75;100.00
5062;BME280;2351;50.812;12.872;2022-12-18T09:26:46;99485.53;;;-3.40;100.00
5062;BME280;2351;50.812;12.872;2022-12-18T09:29:18;99485.34;;;-3.06;100.00
5062;BME280;2351;50.812;12.872;2022-12-18T09:31:50;99484.34;;;-2.85;100.00
5062;BME280;2351;50.812;12.872;2022-12-18T09:34:21;99476.47;;;-2.73;99.63
5062;BME280;2351;50.812;12.872;2022-12-18T09:36:54;99472.91;;;-2.56;99.21
5062;BME280;2351;50.812;12.872;2022-12-18T09:39:26;99464.28;;;-2.58;99.74
5062;BME280;2351;50.812;12.872;2022-12-18T09:41:58;99462.53;;;-2.56;99.57
5062;BME280;2351;50.812;12.872;2022-12-18T09:44:33;99457.38;;;-2.59;100.00
5062;BME280;2351;50.812;12.872;2022-12-18T09:47:12;99452.25;;;-2.68;100.00
5062;BME280;2351;50.812;12.872;2022-12-18T09:49:49;99443.69;;;-2.78;100.00
5062;BME280;2351;50.812;12.872;2022-12-18T09:52:26;99448.97;;;-2.88;100.00
5062;BME280;2351;50.812;12.872;2022-12-18T09:55:01;99438.63;;;-2.91;100.00
5062;BME280;2351;50.812;12.872;2022-12-18T09:57:37;99434.25;;;-2.84;100.00
5062;BME280;2351;50.812;12.872;2022-12-18T10:00:17;99424.75;;;-2.85;100.00
5062;BME280;2351;50.812;12.872;2022-12-18T10:02:51;99421.38;;;-2.98;100.00
5062;BME280;2351;50.812;12.872;2022-12-18T10:05:33;99418.88;;;-3.09;100.00
5062;BME280;2351;50.812;12.872;2022-12-18T10:08:13;99418.88;;;-3.12;100.00
5062;BME280;2351;50.812;12.872;2022-12-18T10:10:48;99415.47;;;-3.19;100.00
5062;BME280;2351;50.812;12.872;2022-12-18T10:13:26;99407.75;;;-3.26;100.00
5062;BME280;2351;50.812;12.872;2022-12-18T10:16:11;99405.22;;;-3.36;100.00
5062;BME280;2351;50.812;12.872;2022-12-18T10:19:09;99400.97;;;-3.43;100.00
5062;BME280;2351;50.812;12.872;2022-12-18T10:21:50;99406.19;;;-3.52;100.00
5062;BME280;2351;50.812;12.872;2022-12-18T10:24:30;99404.50;;;-3.63;99.86
5062;BME280;2351;50.812;12.872;2022-12-18T10:27:12;99393.34;;;-3.74;99.88
5062;BME280;2351;50.812;12.872;2022-12-18T10:29:45;99388.16;;;-3.71;100.00
5062;BME280;2351;50.812;12.872;2022-12-18T10:32:19;99379.41;;;-3.50;100.00
5062;BME280;2351;50.812;12.872;2022-12-18T10:34:53;99376.72;;;-3.33;100.00
5062;BME280;2351;50.812;12.872;2022-12-18T10:37:27;99367.06;;;-3.12;100.00
5062;BME280;2351;50.812;12.872;2022-12-18T10:40:12;99368.47;;;-2.74;100.00
5062;BME280;2351;50.812;12.872;2022-12-18T10:42:44;99372.31;;;-2.26;100.00
5062;BME280;2351;50.812;12.872;2022-12-18T10:45:16;99371.84;;;-1.86;100.00
5062;BME280;2351;50.812;12.872;2022-12-18T10:47:49;99367.94;;;-1.50;100.00
5062;BME280;2351;50.812;12.872;2022-12-18T10:50:25;99367.56;;;-1.26;100.00
5062;BME280;2351;50.812;12.872;2022-12-18T10:53:01;99365.69;;;-1.16;100.00
5062;BME280;2351;50.812;12.872;2022-12-18T10:55:38;99374.03;;;-0.97;100.00
5062;BME280;2351;50.812;12.872;2022-12-18T10:58:18;99358.34;;;-0.91;100.00
5062;BME280;2351;50.812;12.872;2022-12-18T11:01:05;99357.38;;;-0.83;100.00
5062;BME280;2351;50.812;12.872;2022-12-18T11:03:38;99351.97;;;-0.72;100.00
5062;BME280;2351;50.812;12.872;2022-12-18T11:06:12;99346.28;;;-0.95;96.16
5062;BME280;2351;50.812;12.872;2022-12-18T11:08:57;99355.44;;;-1.24;93.51
5062;BME280;2351;50.812;12.872;2022-12-18T11:11:32;99336.09;;;-1.07;98.36
5062;BME280;2351;50.812;12.872;2022-12-18T11:14:05;99335.00;;;-0.92;98.90
5062;BME280;2351;50.812;12.872;2022-12-18T11:16:44;99333.31;;;-0.96;97.44
5062;BME280;2351;50.812;12.872;2022-12-18T11:19:32;99336.16;;;-1.10;93.08
5062;BME280;2351;50.812;12.872;2022-12-18T11:22:19;99332.72;;;-1.70;85.94
5062;BME280;2351;50.812;12.872;2022-12-18T11:24:54;99343.28;;;-1.86;82.50
5062;BME280;2351;50.812;12.872;2022-12-18T11:27:29;99345.16;;;-1.95;79.37
5062;BME280;2351;50.812;12.872;2022-12-18T11:30:08;99352.91;;;-1.91;78.71
5062;BME280;2351;50.812;12.872;2022-12-18T11:32:42;99349.25;;;-1.77;79.53
5062;BME280;2351;50.812;12.872;2022-12-18T11:35:19;99342.75;;;-1.45;85.00
5062;BME280;2351;50.812;12.872;2022-12-18T11:37:55;99342.13;;;-1.05;90.86
5062;BME280;2351;50.812;12.872;2022-12-18T11:40:34;99331.91;;;-1.16;82.18
5062;BME280;2351;50.812;12.872;2022-12-18T11:43:10;99344.28;;;-1.32;74.75
5062;BME280;2351;50.812;12.872;2022-12-18T11:45:49;99353.34;;;-1.61;68.60
5062;BME280;2351;50.812;12.872;2022-12-18T11:48:27;99361.03;;;-1.53;69.38
5062;BME280;2351;50.812;12.872;2022-12-18T11:51:04;99364.72;;;-1.68;67.76
5062;BME280;2351;50.812;12.872;2022-12-18T11:53:41;99374.16;;;-1.62;66.93
5062;BME280;2351;50.812;12.872;2022-12-18T11:56:27;99365.22;;;-1.43;71.59
5062;BME280;2351;50.812;12.872;2022-12-18T11:59:08;99368.28;;;-1.17;69.62
5062;BME280;2351;50.812;12.872;2022-12-18T12:01:48;99374.03;;;-0.95;74.17
5062;BME280;2351;50.812;12.872;2022-12-18T12:04:43;99376.28;;;-0.75;72.05
5062;BME280;2351;50.812;12.872;2022-12-18T12:07:30;99373.44;;;-0.59;73.22
5062;BME280;2351;50.812;12.872;2022-12-18T12:10:12;99369.94;;;-0.58;72.57
5062;BME280;2351;50.812;12.872;2022-12-18T12:13:00;99361.16;;;-0.53;71.85
5062;BME280;2351;50.812;12.872;2022-12-18T12:15:48;99366.50;;;-0.61;68.28
5062;BME280;2351;50.812;12.872;2022-12-18T12:18:34;99368.28;;;-0.63;66.53
5062;BME280;2351;50.812;12.872;2022-12-18T12:21:13;99365.69;;;-0.64;69.01
5062;BME280;2351;50.812;12.872;2022-12-18T12:23:53;99365.44;;;-0.49;68.64
5062;BME280;2351;50.812;12.872;2022-12-18T12:26:33;99357.28;;;-0.30;68.69
5062;BME280;2351;50.812;12.872;2022-12-18T12:29:19;99360.50;;;-0.17;68.46
5062;BME280;2351;50.812;12.872;2022-12-18T12:32:07;99353.16;;;0.04;68.87
5062;BME280;2351;50.812;12.872;2022-12-18T12:34:52;99353.59;;;0.24;69.04
5062;BME280;2351;50.812;12.872;2022-12-18T12:37:34;99346.94;;;0.09;63.93
5062;BME280;2351;50.812;12.872;2022-12-18T12:40:12;99348.16;;;-0.07;65.67
5062;BME280;2351;50.812;12.872;2022-12-18T12:42:48;99345.78;;;-0.18;62.95
5062;BME280;2351;50.812;12.872;2022-12-18T12:45:44;99335.81;;;-0.41;62.15
5062;BME280;2351;50.812;12.872;2022-12-18T12:48:28;99336.53;;;-0.82;58.78
5062;BME280;2351;50.812;12.872;2022-12-18T12:51:08;99333.59;;;-1.12;57.89
5062;BME280;2351;50.812;12.872;2022-12-18T12:53:42;99333.41;;;-1.02;61.56
5062;BME280;2351;50.812;12.872;2022-12-18T12:56:16;99336.16;;;-1.10;59.35
5062;BME280;2351;50.812;12.872;2022-12-18T12:58:55;99332.72;;;-1.12;58.59
5062;BME280;2351;50.812;12.872;2022-12-18T13:01:36;99336.53;;;-1.33;59.39
5062;BME280;2351;50.812;12.872;2022-12-18T13:04:18;99342.34;;;-1.21;60.29
5062;BME280;2351;50.812;12.872;2022-12-18T13:06:58;99352.66;;;-1.72;57.40
5062;BME280;2351;50.812;12.872;2022-12-18T13:09:31;99347.78;;;-1.97;58.49
5062;BME280;2351;50.812;12.872;2022-12-18T13:12:08;99347.88;;;-2.06;58.49
5062;BME280;2351;50.812;12.872;2022-12-18T13:15:12;99347.16;;;-2.18;59.48
5062;BME280;2351;50.812;12.872;2022-12-18T13:17:45;99348.81;;;-2.12;59.28
5062;BME280;2351;50.812;12.872;2022-12-18T13:20:18;99350.59;;;-2.16;60.35
5062;BME280;2351;50.812;12.872;2022-12-18T13:22:57;99356.69;;;-2.20;59.76
5062;BME280;2351;50.812;12.872;2022-12-18T13:25:36;99342.19;;;-2.38;59.13
5062;BME280;2351;50.812;12.872;2022-12-18T13:28:11;99336.16;;;-2.38;60.15
5062;BME280;2351;50.812;12.872;2022-12-18T13:30:48;99331.09;;;-2.49;60.18
5062;BME280;2351;50.812;12.872;2022-12-18T13:33:47;99330.34;;;-2.62;59.92
5062;BME280;2351;50.812;12.872;2022-12-18T13:36:31;99324.31;;;-2.64;60.91
5062;BME280;2351;50.812;12.872;2022-12-18T13:42:34;99314.19;;;-2.89;61.49
5062;BME280;2351;50.812;12.872;2022-12-18T13:45:45;99316.81;;;-2.92;61.69
5062;BME280;2351;50.812;12.872;2022-12-18T13:48:24;99327.25;;;-3.00;61.48
5062;BME280;2351;50.812;12.872;2022-12-18T13:51:00;99323.84;;;-3.05;61.56